Pagina principale
METAR-TAF:

METAR-TAF

Aeroporti :

Cambridge, Inghilterra

latitudine: 52-12N, longitudine: 000-11E, altezza: 15 m

Osservazione

Il bollettino è stato emesso 25 minuti fa, alle 15:50 UTC
Vento 8 kt da sud/sud-est
Temperature 25°C
Umidità 61%
Pressione 1016 hPa
Visibilità 10 km o più
Poco nuvoloso ad un'altezza di 2200 ft

METAR: EGSC 241550Z 16008KT 9999 FEW022 25/17 Q1016

Ora: 17:15 (16:15 UTC)

Previsione

Il bollettino è stato emesso 2 ore e 15 minuti fa, alle 14:00 UTC
Previsione valida dal 24 alle 15 UTC al 24 alle 19 UTC
Vento 7 kt da sud/sud-ovest
Visibilità 10 km o più
Poco nuvoloso ad un'altezza di 4500 ft
Probabilità 30% :
Temporaneamente
dal 24 alle 15 UTC al 24 alle 19 UTC
Visibilità: 6000 m
rovesci di pioggia

TAF: EGSC 241400Z 2415/2419 20007KT 9999 FEW045 PROB30 TEMPO 2415/2419 6000 SHRA

Osservazioni e previsioni meteorologiche di più di 4000 aeroporti (messaggi METAR e TAF).

Le stazioni disponibili sono rappresentate dai dischi gialli e rossi sulla carta.

Puntare il mouse per vedere il nome della stazione.

Clicca sopra per visualizzare le osservazioni e previsioni meteorologiche.

Per cambiare la mappa : fare clic sui pulsanti verdi con una croce nera per ingrandire, il pulsante verde con un trattino per diminuire, o sulla freccia verde per le mappe adiacenti.


METAR-TAF: